createdAt,value
2022-11-17T00:03:59.817Z,97488.06
2022-11-17T00:09:04.761Z,97483.91
2022-11-17T00:14:27.427Z,97479.09
2022-11-17T00:19:47.456Z,97469.06
2022-11-17T00:24:52.792Z,97464.78
2022-11-17T00:29:58.287Z,97462.06
2022-11-17T00:35:06.613Z,97463.22
2022-11-17T00:40:15.704Z,97464.56
2022-11-17T00:45:21.036Z,97461.94
2022-11-17T00:50:28.607Z,97460.25
2022-11-17T00:55:34.948Z,97451.78
2022-11-17T01:00:40.375Z,97462.31
2022-11-17T01:05:47.949Z,97454.97
2022-11-17T01:10:53.049Z,97446.47
2022-11-17T01:15:57.975Z,97438.41
2022-11-17T01:21:12.513Z,97428.25
2022-11-17T01:26:18.726Z,97433.53
2022-11-17T01:31:25.950Z,97428.69
2022-11-17T01:36:58.568Z,97431.03
2022-11-17T01:42:08.408Z,97426.13
2022-11-17T01:47:19.498Z,97425.00
2022-11-17T01:52:28.400Z,97425.78
2022-11-17T01:57:40.490Z,97419.16
2022-11-17T02:02:48.091Z,97407.75
2022-11-17T02:07:57.573Z,97405.09
2022-11-17T02:13:06.598Z,97416.69
2022-11-17T02:18:11.968Z,97413.56
2022-11-17T02:23:55.676Z,97408.22
2022-11-17T02:29:09.122Z,97411.44
2022-11-17T02:34:22.391Z,97412.00
2022-11-17T02:39:32.386Z,97407.59
2022-11-17T02:44:46.006Z,97400.41
2022-11-17T02:49:56.049Z,97398.28
2022-11-17T02:55:03.069Z,97396.69
2022-11-17T03:00:14.151Z,97396.88
2022-11-17T03:05:26.114Z,97393.59
2022-11-17T03:10:39.261Z,97394.38
2022-11-17T03:15:54.209Z,97400.00
2022-11-17T03:21:08.663Z,97393.53
2022-11-17T03:26:18.674Z,97390.00
2022-11-17T03:31:29.471Z,97394.25
2022-11-17T03:36:38.444Z,97390.91
2022-11-17T03:41:47.449Z,97391.69
2022-11-17T03:46:57.878Z,97384.31
2022-11-17T03:52:04.124Z,97379.84
2022-11-17T03:57:16.124Z,97394.06
2022-11-17T04:02:25.416Z,97387.16
2022-11-17T04:07:30.607Z,97389.38
2022-11-17T04:12:48.015Z,97392.50
2022-11-17T04:17:55.424Z,97381.97
2022-11-17T04:23:11.913Z,97377.16
2022-11-17T04:28:28.987Z,97372.13
2022-11-17T04:33:42.552Z,97357.75
2022-11-17T04:38:49.477Z,97370.84
2022-11-17T04:43:57.951Z,97376.78
2022-11-17T04:49:06.439Z,97379.69
2022-11-17T04:54:13.764Z,97377.81
2022-11-17T04:59:18.874Z,97367.50
2022-11-17T05:04:38.897Z,97354.66
2022-11-17T05:09:43.904Z,97350.75
2022-11-17T05:14:50.597Z,97350.19
2022-11-17T05:20:01.466Z,97353.00
2022-11-17T05:25:07.272Z,97351.88
2022-11-17T05:30:13.982Z,97346.03
2022-11-17T05:35:21.471Z,97344.34
2022-11-17T05:40:28.905Z,97336.38
2022-11-17T05:45:33.870Z,97337.91
2022-11-17T05:50:42.762Z,97323.66
2022-11-17T05:55:47.891Z,97335.88
2022-11-17T06:00:55.079Z,97346.88
2022-11-17T06:06:02.756Z,97339.63
2022-11-17T06:11:10.034Z,97332.75
2022-11-17T06:16:23.571Z,97352.19
2022-11-17T06:21:49.453Z,97342.91
2022-11-17T06:26:57.015Z,97347.13
2022-11-17T06:32:07.070Z,97354.41
2022-11-17T06:37:25.218Z,97343.94
2022-11-17T06:42:42.647Z,97349.28
2022-11-17T06:47:50.042Z,97353.97
2022-11-17T06:53:08.009Z,97352.81
2022-11-17T06:58:17.653Z,97344.44
2022-11-17T07:03:23.845Z,97344.25
2022-11-17T07:08:32.142Z,97339.09
2022-11-17T07:13:38.044Z,97331.22
2022-11-17T07:18:45.895Z,97328.03
2022-11-17T07:23:57.140Z,97324.22
2022-11-17T07:29:02.247Z,97315.97
2022-11-17T07:34:07.670Z,97324.06
2022-11-17T07:39:21.213Z,97327.56
2022-11-17T07:44:28.112Z,97322.91
2022-11-17T07:49:32.959Z,97324.66
2022-11-17T07:55:02.962Z,97320.69
2022-11-17T08:00:21.655Z,97335.59
2022-11-17T08:05:30.709Z,97322.25
2022-11-17T08:10:38.376Z,97330.50
2022-11-17T08:15:43.490Z,97326.63
2022-11-17T08:20:49.257Z,97326.22
2022-11-17T08:25:56.831Z,97324.09
2022-11-17T08:31:04.030Z,97321.84
2022-11-17T08:36:10.023Z,97317.22
2022-11-17T08:41:17.577Z,97309.31
2022-11-17T08:46:22.549Z,97307.94
2022-11-17T08:51:29.392Z,97317.09
2022-11-17T08:56:36.928Z,97320.03
2022-11-17T09:01:42.486Z,97322.25
2022-11-17T09:06:55.749Z,97323.13
2022-11-17T09:12:13.847Z,97327.91
2022-11-17T09:17:19.701Z,97328.00
2022-11-17T09:22:24.988Z,97319.59
2022-11-17T09:27:32.644Z,97342.38
2022-11-17T09:32:41.058Z,97344.94
2022-11-17T09:37:51.411Z,97333.41
2022-11-17T09:42:59.033Z,97338.34
2022-11-17T09:48:38.964Z,97335.13
2022-11-17T09:53:43.674Z,97322.44
2022-11-17T09:59:00.294Z,97330.16
2022-11-17T10:04:11.938Z,97315.84
2022-11-17T10:09:26.068Z,97313.38
2022-11-17T10:14:44.060Z,97313.56
2022-11-17T10:19:49.247Z,97310.31
2022-11-17T10:24:58.742Z,97312.47
2022-11-17T10:30:11.614Z,97299.78
2022-11-17T10:35:19.335Z,97296.56
2022-11-17T10:40:27.222Z,97293.50
2022-11-17T10:45:37.591Z,97282.06
2022-11-17T10:50:54.763Z,97270.50
2022-11-17T10:56:07.561Z,97262.53
2022-11-17T11:01:19.793Z,97267.31
2022-11-17T11:06:32.833Z,97224.44
2022-11-17T11:11:47.490Z,97253.44
2022-11-17T11:16:55.958Z,97242.88
2022-11-17T11:22:31.201Z,97247.56
2022-11-17T11:28:07.449Z,97264.03
2022-11-17T11:33:28.452Z,97263.22
2022-11-17T11:38:46.902Z,97251.25
2022-11-17T11:44:20.903Z,97259.75
2022-11-17T11:49:35.450Z,97248.31
2022-11-17T11:54:50.732Z,97223.31
2022-11-17T12:00:04.641Z,97226.75
2022-11-17T12:05:27.331Z,97204.94
2022-11-17T12:10:39.646Z,97208.06
2022-11-17T12:15:51.474Z,97220.06
2022-11-17T12:21:09.354Z,97208.56
2022-11-17T12:26:25.490Z,97208.56
2022-11-17T12:31:46.479Z,97200.06
2022-11-17T12:37:26.540Z,97206.16
2022-11-17T12:42:33.714Z,97191.47
2022-11-17T12:48:11.286Z,97206.63
2022-11-17T12:53:36.349Z,97199.59
2022-11-17T12:58:51.790Z,97202.69
2022-11-17T13:04:03.551Z,97197.22
2022-11-17T13:09:15.457Z,97188.13
2022-11-17T13:14:20.442Z,97182.31
2022-11-17T13:19:37.793Z,97173.59
2022-11-17T13:24:47.499Z,97178.09
2022-11-17T13:29:53.546Z,97173.38
2022-11-17T13:35:00.998Z,97178.94
2022-11-17T13:40:22.829Z,97182.19
2022-11-17T13:45:30.775Z,97181.72
2022-11-17T13:50:40.069Z,97185.59
2022-11-17T13:55:51.774Z,97176.22
2022-11-17T14:01:01.459Z,97178.50
2022-11-17T14:06:08.675Z,97181.94
2022-11-17T14:11:25.783Z,97175.59
2022-11-17T14:16:35.777Z,97170.13
2022-11-17T14:22:01.194Z,97176.78
2022-11-17T14:28:02.558Z,97175.28
2022-11-17T14:33:13.150Z,97167.50
2022-11-17T14:38:22.112Z,97170.94
2022-11-17T14:43:29.831Z,97176.38
2022-11-17T14:48:37.656Z,97172.41
2022-11-17T14:59:06.669Z,97175.34
2022-11-17T15:09:44.195Z,97172.25
2022-11-17T15:15:01.139Z,97177.84
2022-11-17T15:20:06.908Z,97184.28
2022-11-17T15:25:12.858Z,97185.59
2022-11-17T15:30:20.949Z,97188.97
2022-11-17T15:35:25.870Z,97201.69
2022-11-17T15:40:31.024Z,97199.69
2022-11-17T15:45:38.936Z,97199.41
2022-11-17T15:50:44.298Z,97199.41
2022-11-17T15:55:50.883Z,97184.66
2022-11-17T16:01:12.285Z,97186.69
2022-11-17T16:06:17.446Z,97186.38
2022-11-17T16:11:25.085Z,97183.28
2022-11-17T16:16:35.086Z,97182.19
2022-11-17T16:21:40.768Z,97188.72
2022-11-17T16:26:46.409Z,97173.28
2022-11-17T16:31:54.085Z,97177.06
2022-11-17T16:36:59.057Z,97179.16
2022-11-17T16:42:04.059Z,97183.97
2022-11-17T16:47:12.769Z,97177.94
2022-11-17T16:52:20.322Z,97177.00
2022-11-17T16:57:25.442Z,97168.78
2022-11-17T17:02:44.707Z,97174.00
2022-11-17T17:07:49.630Z,97178.19
2022-11-17T17:12:56.215Z,97188.50
2022-11-17T17:18:05.121Z,97186.94
2022-11-17T17:23:09.980Z,97188.13
2022-11-17T17:28:14.988Z,97185.03
2022-11-17T17:33:22.641Z,97180.50
2022-11-17T17:38:27.944Z,97177.84
2022-11-17T17:43:33.160Z,97181.56
2022-11-17T17:48:43.461Z,97177.13
2022-11-17T17:53:50.249Z,97187.63
2022-11-17T17:58:58.080Z,97176.28
2022-11-17T18:04:15.280Z,97173.19
2022-11-17T18:09:21.359Z,97176.28
2022-11-17T18:14:26.871Z,97173.06
2022-11-17T18:19:34.831Z,97175.56
2022-11-17T18:24:39.912Z,97181.88
2022-11-17T18:29:45.256Z,97183.13
2022-11-17T18:34:54.494Z,97184.31
2022-11-17T18:39:59.660Z,97175.63
2022-11-17T18:45:05.161Z,97167.50
2022-11-17T18:50:13.418Z,97164.19
2022-11-17T18:55:22.184Z,97160.72
2022-11-17T19:00:30.417Z,97161.91
2022-11-17T19:05:39.726Z,97176.34
2022-11-17T19:10:54.681Z,97167.88
2022-11-17T19:16:06.213Z,97159.75
2022-11-17T19:21:15.806Z,97154.81
2022-11-17T19:26:22.564Z,97156.28
2022-11-17T19:31:28.318Z,97177.72
2022-11-17T19:36:37.585Z,97172.03
2022-11-17T19:41:43.829Z,97172.81
2022-11-17T19:46:49.676Z,97178.25
2022-11-17T19:51:57.496Z,97176.88
2022-11-17T19:57:03.016Z,97182.78
2022-11-17T20:02:08.395Z,97178.44
2022-11-17T20:07:16.944Z,97173.53
2022-11-17T20:12:23.486Z,97176.97
2022-11-17T20:17:28.979Z,97161.75
2022-11-17T20:22:37.293Z,97160.00
2022-11-17T20:27:43.200Z,97167.31
2022-11-17T20:32:48.719Z,97172.59
2022-11-17T20:37:56.714Z,97174.59
2022-11-17T20:43:05.071Z,97179.59
2022-11-17T20:48:10.461Z,97179.09
2022-11-17T20:53:19.938Z,97172.97
2022-11-17T20:58:28.978Z,97166.97
2022-11-17T21:03:34.267Z,97172.22
2022-11-17T21:08:43.739Z,97181.97
2022-11-17T21:13:48.947Z,97181.03
2022-11-17T21:18:53.823Z,97186.47
2022-11-17T21:24:01.459Z,97195.28
2022-11-17T21:29:07.256Z,97187.84
2022-11-17T21:34:18.543Z,97173.88
2022-11-17T21:39:26.123Z,97174.66
2022-11-17T21:44:30.990Z,97172.50
2022-11-17T21:49:36.109Z,97154.97
2022-11-17T21:54:44.613Z,97152.94
2022-11-17T21:59:50.463Z,97159.47
2022-11-17T22:04:55.395Z,97169.34
2022-11-17T22:10:03.090Z,97165.75
2022-11-17T22:15:11.817Z,97178.69
2022-11-17T22:20:17.092Z,97188.25
2022-11-17T22:25:44.188Z,97202.22
2022-11-17T22:30:49.618Z,97200.06
2022-11-17T22:35:55.556Z,97196.91
2022-11-17T22:41:08.237Z,97187.41
2022-11-17T22:46:14.578Z,97200.47
2022-11-17T22:51:42.845Z,97184.78
2022-11-17T22:56:50.509Z,97193.59
2022-11-17T23:01:55.647Z,97193.88
2022-11-17T23:07:00.660Z,97190.84
2022-11-17T23:12:09.054Z,97184.31
2022-11-17T23:17:14.318Z,97192.22
2022-11-17T23:22:19.525Z,97198.31
2022-11-17T23:27:30.823Z,97203.69
2022-11-17T23:32:35.938Z,97210.47
2022-11-17T23:37:41.600Z,97203.53
2022-11-17T23:42:49.103Z,97192.78
2022-11-17T23:47:54.050Z,97212.69
2022-11-17T23:52:58.949Z,97209.59
2022-11-17T23:58:06.835Z,97204.13
